createdAt,value
2017-06-19T19:13:08.853Z,26.90
2017-06-19T19:15:36.718Z,26.90
2017-06-19T19:18:04.558Z,26.80
2017-06-19T19:20:33.089Z,26.70
2017-06-19T19:23:01.996Z,26.40
2017-06-19T19:25:30.118Z,26.40
2017-06-19T19:27:59.090Z,26.20
2017-06-19T19:30:27.529Z,26.10
2017-06-19T19:32:55.408Z,26.10
2017-06-19T19:35:23.910Z,26.10
2017-06-19T19:37:51.503Z,25.90
2017-06-19T19:40:19.062Z,25.90
2017-06-19T19:42:46.700Z,25.90
2017-06-19T19:45:14.302Z,25.80
2017-06-19T19:47:44.585Z,25.70
2017-06-19T19:50:12.632Z,25.60
2017-06-19T19:52:40.241Z,25.50
2017-06-19T19:55:08.061Z,25.50
2017-06-19T19:57:36.623Z,25.30
2017-06-19T20:00:04.441Z,25.30
2017-06-19T20:02:32.456Z,25.20
2017-06-19T20:05:01.198Z,25.20
2017-06-19T20:07:29.192Z,25.20
2017-06-19T20:09:57.137Z,25.20
2017-06-19T20:12:25.523Z,25.10
2017-06-19T20:14:53.992Z,25.00
2017-06-19T20:17:21.553Z,25.00
2017-06-19T20:19:49.280Z,25.00
2017-06-19T20:22:16.856Z,24.90
2017-06-19T20:24:44.463Z,24.80
2017-06-19T20:27:12.820Z,24.80
2017-06-19T20:29:40.712Z,24.80
2017-06-19T20:32:08.875Z,24.90
2017-06-19T20:34:37.340Z,24.80
2017-06-19T20:37:06.065Z,24.80
2017-06-19T20:39:33.761Z,24.70
2017-06-19T20:42:02.526Z,24.70
2017-06-19T20:44:30.357Z,24.70
2017-06-19T20:46:58.082Z,24.70
2017-06-19T20:49:26.970Z,24.70
2017-06-19T20:51:54.579Z,24.60
2017-06-19T20:54:22.162Z,24.50
2017-06-19T20:56:51.605Z,24.50
2017-06-19T20:59:19.192Z,24.40
2017-06-19T21:01:46.780Z,24.40
2017-06-19T21:04:14.387Z,24.20
2017-06-19T21:06:42.014Z,24.20
2017-06-19T21:09:09.849Z,24.20
2017-06-19T21:11:37.716Z,24.20
2017-06-19T21:14:05.396Z,24.10
2017-06-19T21:16:33.601Z,24.00
2017-06-19T21:19:02.527Z,23.90
2017-06-19T21:21:31.991Z,23.90
2017-06-19T21:24:00.076Z,23.80
2017-06-19T21:26:29.566Z,23.70
2017-06-19T21:28:57.512Z,23.60
2017-06-19T21:31:26.634Z,23.60
2017-06-19T21:33:55.097Z,23.60
2017-06-19T21:36:22.955Z,23.50
2017-06-19T21:38:50.521Z,23.50
2017-06-19T21:41:18.142Z,23.40
2017-06-19T21:43:45.730Z,23.40
2017-06-19T21:46:13.421Z,23.30
2017-06-19T21:48:41.168Z,23.20
2017-06-19T21:51:10.118Z,23.10
2017-06-19T21:53:37.862Z,23.10
2017-06-19T21:56:06.378Z,23.00
2017-06-19T21:58:35.069Z,23.00
2017-06-19T22:01:02.921Z,23.00
2017-06-19T22:03:31.505Z,23.00
2017-06-19T22:05:59.934Z,22.90
2017-06-19T22:08:28.020Z,22.80
2017-06-19T22:10:56.793Z,22.80
2017-06-19T22:13:25.767Z,22.80
2017-06-19T22:15:53.361Z,22.80
2017-06-19T22:18:21.277Z,22.70
2017-06-19T22:20:54.403Z,22.70
2017-06-19T22:23:24.369Z,22.70
2017-06-19T22:25:52.479Z,22.70
2017-06-19T22:28:20.039Z,22.70
2017-06-19T22:30:47.666Z,22.60
2017-06-19T22:33:15.250Z,22.60
2017-06-19T22:35:42.910Z,22.50
2017-06-19T22:38:11.561Z,22.50
2017-06-19T22:40:39.601Z,22.30
2017-06-19T22:43:07.586Z,22.30
2017-06-19T22:45:36.560Z,22.20
2017-06-19T22:48:04.367Z,22.20
2017-06-19T22:50:32.605Z,22.20
2017-06-19T22:53:00.773Z,22.20
2017-06-19T22:55:28.780Z,22.20
2017-06-19T22:57:57.620Z,22.10
2017-06-19T23:00:25.804Z,22.00
2017-06-19T23:02:53.412Z,22.00
2017-06-19T23:05:21.002Z,22.00
2017-06-19T23:07:49.036Z,22.00
2017-06-19T23:10:16.651Z,21.90
2017-06-19T23:12:44.310Z,21.70
2017-06-19T23:15:12.912Z,21.60
2017-06-19T23:17:40.764Z,21.50
2017-06-19T23:20:08.574Z,21.50
2017-06-19T23:22:36.583Z,21.40
2017-06-19T23:25:04.365Z,21.30
2017-06-19T23:27:32.386Z,21.20
2017-06-19T23:30:00.538Z,21.10
2017-06-19T23:32:28.374Z,21.00
2017-06-19T23:34:56.287Z,21.00
2017-06-19T23:37:23.980Z,21.00
2017-06-19T23:39:51.596Z,21.00
2017-06-19T23:42:19.944Z,20.80
2017-06-19T23:44:47.528Z,20.80
2017-06-19T23:47:15.091Z,20.80
2017-06-19T23:49:43.186Z,20.70
2017-06-19T23:52:10.848Z,20.70
2017-06-19T23:54:38.513Z,20.70
2017-06-19T23:57:06.552Z,20.60
2017-06-19T23:59:34.963Z,20.60
